sensor_id;sensor_type;location;lat;lon;timestamp;pressure;altitude;pressure_sealevel;temperature;humidity
21980;BME280;11154;48.558;9.234;2023-07-31T00:01:39;97628.94;;;17.83;99.71
21980;BME280;11154;48.558;9.234;2023-07-31T00:03:40;97635.56;;;17.81;100.00
21980;BME280;11154;48.558;9.234;2023-07-31T00:05:42;97624.41;;;17.84;100.00
21980;BME280;11154;48.558;9.234;2023-07-31T00:07:43;97616.97;;;17.86;99.25
21980;BME280;11154;48.558;9.234;2023-07-31T00:09:45;97621.94;;;17.89;98.04
21980;BME280;11154;48.558;9.234;2023-07-31T00:11:48;97623.81;;;17.88;98.55
21980;BME280;11154;48.558;9.234;2023-07-31T00:13:53;97616.53;;;17.89;98.81
21980;BME280;11154;48.558;9.234;2023-07-31T00:15:55;97615.09;;;17.86;97.98
21980;BME280;11154;48.558;9.234;2023-07-31T00:17:56;97616.53;;;17.89;98.19
21980;BME280;11154;48.558;9.234;2023-07-31T00:19:58;97618.00;;;17.85;98.65
21980;BME280;11154;48.558;9.234;2023-07-31T00:21:58;97622.75;;;17.83;98.46
21980;BME280;11154;48.558;9.234;2023-07-31T00:24:00;97620.88;;;17.83;98.50
21980;BME280;11154;48.558;9.234;2023-07-31T00:26:02;97623.16;;;17.80;98.52
21980;BME280;11154;48.558;9.234;2023-07-31T00:28:05;97624.59;;;17.69;99.60
21980;BME280;11154;48.558;9.234;2023-07-31T00:30:07;97624.56;;;17.63;100.00
21980;BME280;11154;48.558;9.234;2023-07-31T00:32:08;97621.00;;;17.56;100.00
21980;BME280;11154;48.558;9.234;2023-07-31T00:34:10;97631.38;;;17.59;100.00
21980;BME280;11154;48.558;9.234;2023-07-31T00:36:11;97634.66;;;17.54;100.00
21980;BME280;11154;48.558;9.234;2023-07-31T00:38:13;97630.31;;;17.47;100.00
21980;BME280;11154;48.558;9.234;2023-07-31T00:40:15;97630.91;;;17.49;100.00
21980;BME280;11154;48.558;9.234;2023-07-31T00:42:16;97634.25;;;17.51;100.00
21980;BME280;11154;48.558;9.234;2023-07-31T00:44:19;97636.94;;;17.51;100.00
21980;BME280;11154;48.558;9.234;2023-07-31T00:46:21;97637.34;;;17.54;100.00
21980;BME280;11154;48.558;9.234;2023-07-31T00:48:23;97638.81;;;17.50;100.00
21980;BME280;11154;48.558;9.234;2023-07-31T00:50:25;97629.06;;;17.49;100.00
21980;BME280;11154;48.558;9.234;2023-07-31T00:52:25;97625.97;;;17.46;100.00
21980;BME280;11154;48.558;9.234;2023-07-31T00:54:27;97622.66;;;17.50;100.00
21980;BME280;11154;48.558;9.234;2023-07-31T00:56:29;97615.19;;;17.46;100.00
21980;BME280;11154;48.558;9.234;2023-07-31T00:58:31;97618.09;;;17.44;100.00
21980;BME280;11154;48.558;9.234;2023-07-31T01:00:34;97610.63;;;17.46;100.00
21980;BME280;11154;48.558;9.234;2023-07-31T01:02:36;97612.94;;;17.49;100.00
21980;BME280;11154;48.558;9.234;2023-07-31T01:04:37;97609.41;;;17.49;100.00
21980;BME280;11154;48.558;9.234;2023-07-31T01:06:43;97619.72;;;17.45;100.00
21980;BME280;11154;48.558;9.234;2023-07-31T01:08:54;97619.72;;;17.45;100.00
21980;BME280;11154;48.558;9.234;2023-07-31T01:11:04;97615.59;;;17.43;100.00
21980;BME280;11154;48.558;9.234;2023-07-31T01:13:09;97610.22;;;17.43;100.00
21980;BME280;11154;48.558;9.234;2023-07-31T01:15:10;97606.91;;;17.41;100.00
21980;BME280;11154;48.558;9.234;2023-07-31T01:17:13;97612.28;;;17.41;100.00
21980;BME280;11154;48.558;9.234;2023-07-31T01:19:18;97608.13;;;17.38;100.00
21980;BME280;11154;48.558;9.234;2023-07-31T01:21:44;97598.59;;;17.36;100.00
21980;BME280;11154;48.558;9.234;2023-07-31T01:24:19;97601.72;;;17.33;100.00
21980;BME280;11154;48.558;9.234;2023-07-31T01:26:27;97601.28;;;17.30;100.00
21980;BME280;11154;48.558;9.234;2023-07-31T01:28:34;97597.50;;;17.24;100.00
21980;BME280;11154;48.558;9.234;2023-07-31T01:30:41;97593.78;;;17.25;100.00
21980;BME280;11154;48.558;9.234;2023-07-31T01:32:47;97595.28;;;17.28;100.00
21980;BME280;11154;48.558;9.234;2023-07-31T01:34:49;97591.09;;;17.25;100.00
21980;BME280;11154;48.558;9.234;2023-07-31T01:36:51;97589.44;;;17.24;100.00
21980;BME280;11154;48.558;9.234;2023-07-31T01:38:57;97580.56;;;17.24;100.00
21980;BME280;11154;48.558;9.234;2023-07-31T01:40:58;97581.78;;;17.21;100.00
21980;BME280;11154;48.558;9.234;2023-07-31T01:43:01;97572.28;;;17.25;100.00
21980;BME280;11154;48.558;9.234;2023-07-31T01:45:03;97572.06;;;17.20;100.00
21980;BME280;11154;48.558;9.234;2023-07-31T01:47:05;97576.78;;;17.18;100.00
21980;BME280;11154;48.558;9.234;2023-07-31T01:49:07;97573.72;;;17.21;100.00
21980;BME280;11154;48.558;9.234;2023-07-31T01:51:08;97578.47;;;17.19;100.00
21980;BME280;11154;48.558;9.234;2023-07-31T01:53:10;97574.53;;;17.15;100.00
21980;BME280;11154;48.558;9.234;2023-07-31T01:55:12;97570.19;;;17.14;100.00
21980;BME280;11154;48.558;9.234;2023-07-31T01:57:14;97577.81;;;17.17;100.00
21980;BME280;11154;48.558;9.234;2023-07-31T01:59:17;97574.91;;;17.12;100.00
21980;BME280;11154;48.558;9.234;2023-07-31T02:01:18;97579.06;;;17.15;100.00
21980;BME280;11154;48.558;9.234;2023-07-31T02:03:20;97567.44;;;17.08;100.00
21980;BME280;11154;48.558;9.234;2023-07-31T02:05:21;97563.09;;;17.07;100.00
21980;BME280;11154;48.558;9.234;2023-07-31T02:07:22;97575.28;;;17.03;100.00
21980;BME280;11154;48.558;9.234;2023-07-31T02:09:23;97577.75;;;16.98;100.00
21980;BME280;11154;48.558;9.234;2023-07-31T02:11:25;97568.03;;;16.97;100.00
21980;BME280;11154;48.558;9.234;2023-07-31T02:13:26;97561.00;;;16.96;100.00
21980;BME280;11154;48.558;9.234;2023-07-31T02:15:29;97568.63;;;16.92;100.00
21980;BME280;11154;48.558;9.234;2023-07-31T02:17:31;97561.78;;;16.90;100.00
21980;BME280;11154;48.558;9.234;2023-07-31T02:19:32;97559.53;;;16.87;100.00
21980;BME280;11154;48.558;9.234;2023-07-31T02:21:34;97548.13;;;16.85;100.00
21980;BME280;11154;48.558;9.234;2023-07-31T02:23:35;97546.91;;;16.87;100.00
21980;BME280;11154;48.558;9.234;2023-07-31T02:25:37;97546.69;;;16.89;100.00
21980;BME280;11154;48.558;9.234;2023-07-31T02:27:38;97538.25;;;16.92;100.00
21980;BME280;11154;48.558;9.234;2023-07-31T02:29:39;97539.72;;;16.94;100.00
21980;BME280;11154;48.558;9.234;2023-07-31T02:31:42;97541.16;;;16.97;100.00
21980;BME280;11154;48.558;9.234;2023-07-31T02:33:44;97539.28;;;16.97;100.00
21980;BME280;11154;48.558;9.234;2023-07-31T02:35:45;97539.28;;;16.97;100.00
21980;BME280;11154;48.558;9.234;2023-07-31T02:37:47;97540.34;;;16.96;100.00
21980;BME280;11154;48.558;9.234;2023-07-31T02:39:49;97540.72;;;16.93;100.00
21980;BME280;11154;48.558;9.234;2023-07-31T02:41:51;97531.81;;;16.86;100.00
21980;BME280;11154;48.558;9.234;2023-07-31T02:43:52;97521.66;;;16.82;100.00
21980;BME280;11154;48.558;9.234;2023-07-31T02:45:54;97530.56;;;16.82;100.00
21980;BME280;11154;48.558;9.234;2023-07-31T02:47:57;97534.28;;;16.81;100.00
21980;BME280;11154;48.558;9.234;2023-07-31T02:49:57;97530.56;;;16.82;100.00
21980;BME280;11154;48.558;9.234;2023-07-31T02:51:59;97537.16;;;16.80;100.00
21980;BME280;11154;48.558;9.234;2023-07-31T02:54:01;97531.75;;;16.73;100.00
21980;BME280;11154;48.558;9.234;2023-07-31T02:56:03;97539.19;;;16.71;100.00
21980;BME280;11154;48.558;9.234;2023-07-31T02:58:04;97542.25;;;16.68;100.00
21980;BME280;11154;48.558;9.234;2023-07-31T03:00:07;97540.59;;;16.67;100.00
21980;BME280;11154;48.558;9.234;2023-07-31T03:02:09;97537.72;;;16.69;100.00
21980;BME280;11154;48.558;9.234;2023-07-31T03:04:13;97536.91;;;16.68;100.00
21980;BME280;11154;48.558;9.234;2023-07-31T03:06:14;97528.03;;;16.68;100.00
21980;BME280;11154;48.558;9.234;2023-07-31T03:08:16;97531.31;;;16.70;100.00
21980;BME280;11154;48.558;9.234;2023-07-31T03:10:17;97528.47;;;16.71;100.00
21980;BME280;11154;48.558;9.234;2023-07-31T03:12:19;97526.78;;;16.70;100.00
21980;BME280;11154;48.558;9.234;2023-07-31T03:14:20;97513.53;;;16.69;100.00
21980;BME280;11154;48.558;9.234;2023-07-31T03:16:21;97522.84;;;16.66;100.00
21980;BME280;11154;48.558;9.234;2023-07-31T03:18:23;97513.38;;;16.70;100.00
21980;BME280;11154;48.558;9.234;2023-07-31T03:20:26;97519.34;;;16.72;100.00
21980;BME280;11154;48.558;9.234;2023-07-31T03:22:28;97520.41;;;16.71;100.00
21980;BME280;11154;48.558;9.234;2023-07-31T03:24:29;97513.38;;;16.70;100.00
21980;BME280;11154;48.558;9.234;2023-07-31T03:26:31;97512.94;;;16.73;100.00
21980;BME280;11154;48.558;9.234;2023-07-31T03:28:32;97516.91;;;16.77;100.00
21980;BME280;11154;48.558;9.234;2023-07-31T03:30:35;97524.13;;;16.77;100.00
21980;BME280;11154;48.558;9.234;2023-07-31T03:32:37;97521.84;;;16.74;100.00
21980;BME280;11154;48.558;9.234;2023-07-31T03:34:38;97524.53;;;16.74;100.00
21980;BME280;11154;48.558;9.234;2023-07-31T03:36:41;97525.13;;;16.69;100.00
21980;BME280;11154;48.558;9.234;2023-07-31T03:38:43;97521.81;;;16.67;100.00
21980;BME280;11154;48.558;9.234;2023-07-31T03:40:44;97525.78;;;16.71;100.00
21980;BME280;11154;48.558;9.234;2023-07-31T03:42:46;97530.72;;;16.74;100.00
21980;BME280;11154;48.558;9.234;2023-07-31T03:44:48;97532.38;;;16.75;100.00
21980;BME280;11154;48.558;9.234;2023-07-31T03:46:49;97535.03;;;16.69;100.00
21980;BME280;11154;48.558;9.234;2023-07-31T03:48:51;97526.38;;;16.67;100.00
21980;BME280;11154;48.558;9.234;2023-07-31T03:50:52;97529.72;;;16.75;100.00
21980;BME280;11154;48.558;9.234;2023-07-31T03:52:55;97531.81;;;16.80;100.00
21980;BME280;11154;48.558;9.234;2023-07-31T03:54:57;97523.97;;;16.85;100.00
21980;BME280;11154;48.558;9.234;2023-07-31T03:56:58;97535.13;;;16.88;100.00
21980;BME280;11154;48.558;9.234;2023-07-31T03:59:00;97528.31;;;16.92;100.00
21980;BME280;11154;48.558;9.234;2023-07-31T04:01:01;97532.28;;;16.96;100.00
21980;BME280;11154;48.558;9.234;2023-07-31T04:03:02;97532.28;;;16.96;100.00
21980;BME280;11154;48.558;9.234;2023-07-31T04:05:04;97531.00;;;16.92;100.00
21980;BME280;11154;48.558;9.234;2023-07-31T04:07:05;97535.38;;;16.93;100.00
21980;BME280;11154;48.558;9.234;2023-07-31T04:09:08;97528.97;;;16.94;100.00
21980;BME280;11154;48.558;9.234;2023-07-31T04:11:10;97531.00;;;16.92;100.00
21980;BME280;11154;48.558;9.234;2023-07-31T04:13:12;97536.00;;;16.95;100.00
21980;BME280;11154;48.558;9.234;2023-07-31T04:15:14;97538.91;;;16.94;100.00
21980;BME280;11154;48.558;9.234;2023-07-31T04:17:17;97544.66;;;16.97;100.00
21980;BME280;11154;48.558;9.234;2023-07-31T04:19:18;97541.59;;;17.00;100.00
21980;BME280;11154;48.558;9.234;2023-07-31T04:21:20;97537.25;;;16.99;100.00
21980;BME280;11154;48.558;9.234;2023-07-31T04:23:22;97538.03;;;16.93;100.00
21980;BME280;11154;48.558;9.234;2023-07-31T04:25:25;97535.78;;;16.90;100.00
21980;BME280;11154;48.558;9.234;2023-07-31T04:27:26;97522.34;;;16.90;100.00
21980;BME280;11154;48.558;9.234;2023-07-31T04:29:28;97527.72;;;16.90;100.00
21980;BME280;11154;48.558;9.234;2023-07-31T04:31:29;97518.19;;;16.88;100.00
21980;BME280;11154;48.558;9.234;2023-07-31T04:33:31;97515.31;;;16.89;100.00
21980;BME280;11154;48.558;9.234;2023-07-31T04:35:33;97515.31;;;16.96;100.00
21980;BME280;11154;48.558;9.234;2023-07-31T04:37:33;97524.41;;;16.95;100.00
21980;BME280;11154;48.558;9.234;2023-07-31T04:39:35;97524.81;;;16.92;100.00
21980;BME280;11154;48.558;9.234;2023-07-31T04:41:37;97506.66;;;16.94;100.00
21980;BME280;11154;48.558;9.234;2023-07-31T04:43:38;97514.91;;;16.92;100.00
21980;BME280;11154;48.558;9.234;2023-07-31T04:45:42;97519.88;;;16.95;100.00
21980;BME280;11154;48.558;9.234;2023-07-31T04:47:46;97510.16;;;16.94;100.00
21980;BME280;11154;48.558;9.234;2023-07-31T04:49:47;97522.34;;;16.97;100.00
21980;BME280;11154;48.558;9.234;2023-07-31T04:51:48;97524.44;;;17.01;100.00
21980;BME280;11154;48.558;9.234;2023-07-31T04:53:49;97522.78;;;17.07;100.00
21980;BME280;11154;48.558;9.234;2023-07-31T04:55:51;97523.22;;;17.10;100.00
21980;BME280;11154;48.558;9.234;2023-07-31T04:57:54;97524.88;;;17.11;100.00
21980;BME280;11154;48.558;9.234;2023-07-31T04:59:54;97524.50;;;17.14;100.00
21980;BME280;11154;48.558;9.234;2023-07-31T05:01:56;97517.47;;;17.13;100.00
21980;BME280;11154;48.558;9.234;2023-07-31T05:03:57;97520.78;;;17.15;100.00
21980;BME280;11154;48.558;9.234;2023-07-31T05:05:59;97507.72;;;17.12;100.00
21980;BME280;11154;48.558;9.234;2023-07-31T05:08:01;97517.25;;;17.15;100.00
21980;BME280;11154;48.558;9.234;2023-07-31T05:10:03;97520.34;;;17.18;100.00
21980;BME280;11154;48.558;9.234;2023-07-31T05:12:05;97516.00;;;17.17;100.00
21980;BME280;11154;48.558;9.234;2023-07-31T05:14:08;97512.72;;;17.15;100.00
21980;BME280;11154;48.558;9.234;2023-07-31T05:16:10;97518.09;;;17.15;100.00
21980;BME280;11154;48.558;9.234;2023-07-31T05:18:12;97518.09;;;17.15;100.00
21980;BME280;11154;48.558;9.234;2023-07-31T05:20:13;97513.31;;;17.17;100.00
21980;BME280;11154;48.558;9.234;2023-07-31T05:22:16;97513.97;;;17.19;100.00
21980;BME280;11154;48.558;9.234;2023-07-31T05:24:17;97517.28;;;17.21;100.00
21980;BME280;11154;48.558;9.234;2023-07-31T05:26:19;97520.56;;;17.23;100.00
21980;BME280;11154;48.558;9.234;2023-07-31T05:28:21;97510.88;;;17.22;100.00
21980;BME280;11154;48.558;9.234;2023-07-31T05:30:24;97507.13;;;17.23;100.00
21980;BME280;11154;48.558;9.234;2023-07-31T05:32:25;97521.66;;;17.29;100.00
21980;BME280;11154;48.558;9.234;2023-07-31T05:34:26;97527.06;;;17.35;100.00
21980;BME280;11154;48.558;9.234;2023-07-31T05:36:28;97514.25;;;17.37;100.00
21980;BME280;11154;48.558;9.234;2023-07-31T05:38:29;97528.53;;;17.44;100.00
21980;BME280;11154;48.558;9.234;2023-07-31T05:40:32;97520.06;;;17.47;100.00
21980;BME280;11154;48.558;9.234;2023-07-31T05:42:33;97516.56;;;17.53;100.00
21980;BME280;11154;48.558;9.234;2023-07-31T05:44:36;97519.66;;;17.56;100.00
21980;BME280;11154;48.558;9.234;2023-07-31T05:46:39;97522.56;;;17.61;100.00
21980;BME280;11154;48.558;9.234;2023-07-31T05:48:41;97519.88;;;17.68;100.00
21980;BME280;11154;48.558;9.234;2023-07-31T05:50:43;97520.50;;;17.70;100.00
21980;BME280;11154;48.558;9.234;2023-07-31T05:52:44;97516.16;;;17.75;100.00
21980;BME280;11154;48.558;9.234;2023-07-31T05:54:46;97521.75;;;17.80;100.00
21980;BME280;11154;48.558;9.234;2023-07-31T05:56:48;97517.44;;;17.86;100.00
21980;BME280;11154;48.558;9.234;2023-07-31T05:58:50;97523.00;;;17.91;100.00
21980;BME280;11154;48.558;9.234;2023-07-31T06:00:51;97528.59;;;17.96;100.00
21980;BME280;11154;48.558;9.234;2023-07-31T06:02:54;97518.03;;;18.01;100.00
21980;BME280;11154;48.558;9.234;2023-07-31T06:04:56;97524.03;;;18.03;100.00
21980;BME280;11154;48.558;9.234;2023-07-31T06:06:57;97521.31;;;18.09;100.00
21980;BME280;11154;48.558;9.234;2023-07-31T06:08:58;97515.75;;;18.10;100.00
21980;BME280;11154;48.558;9.234;2023-07-31T06:10:59;97516.34;;;18.12;100.00
21980;BME280;11154;48.558;9.234;2023-07-31T06:13:01;97514.06;;;18.16;100.00
21980;BME280;11154;48.558;9.234;2023-07-31T06:15:03;97514.53;;;18.19;100.00
21980;BME280;11154;48.558;9.234;2023-07-31T06:17:06;97515.16;;;18.21;100.00
21980;BME280;11154;48.558;9.234;2023-07-31T06:19:08;97513.28;;;18.22;100.00
21980;BME280;11154;48.558;9.234;2023-07-31T06:21:10;97512.25;;;18.29;100.00
21980;BME280;11154;48.558;9.234;2023-07-31T06:23:12;97505.41;;;18.33;100.00
21980;BME280;11154;48.558;9.234;2023-07-31T06:25:13;97506.03;;;18.35;100.00
21980;BME280;11154;48.558;9.234;2023-07-31T06:27:15;97515.53;;;18.38;100.00
21980;BME280;11154;48.558;9.234;2023-07-31T06:29:16;97504.78;;;18.38;100.00
21980;BME280;11154;48.558;9.234;2023-07-31T06:31:18;97509.13;;;18.32;100.00
21980;BME280;11154;48.558;9.234;2023-07-31T06:33:23;97502.72;;;18.33;100.00
21980;BME280;11154;48.558;9.234;2023-07-31T06:35:26;97501.03;;;18.32;100.00
21980;BME280;11154;48.558;9.234;2023-07-31T06:37:27;97512.66;;;18.33;100.00
21980;BME280;11154;48.558;9.234;2023-07-31T06:39:29;97513.25;;;18.35;100.00
21980;BME280;11154;48.558;9.234;2023-07-31T06:41:31;97516.34;;;18.38;100.00
21980;BME280;11154;48.558;9.234;2023-07-31T06:43:32;97516.78;;;18.42;100.00
21980;BME280;11154;48.558;9.234;2023-07-31T06:45:34;97515.94;;;18.48;100.00
21980;BME280;11154;48.558;9.234;2023-07-31T06:47:36;97515.72;;;18.62;100.00
21980;BME280;11154;48.558;9.234;2023-07-31T06:49:38;97515.44;;;18.70;100.00
21980;BME280;11154;48.558;9.234;2023-07-31T06:51:40;97513.75;;;18.88;100.00
21980;BME280;11154;48.558;9.234;2023-07-31T06:53:42;97521.78;;;18.95;100.00
21980;BME280;11154;48.558;9.234;2023-07-31T06:55:45;97510.38;;;18.99;100.00
21980;BME280;11154;48.558;9.234;2023-07-31T06:57:49;97499.34;;;19.07;100.00
21980;BME280;11154;48.558;9.234;2023-07-31T06:59:51;97507.81;;;19.17;100.00
21980;BME280;11154;48.558;9.234;2023-07-31T07:01:53;97507.59;;;19.25;100.00
21980;BME280;11154;48.558;9.234;2023-07-31T07:03:55;97504.88;;;19.32;100.00
21980;BME280;11154;48.558;9.234;2023-07-31T07:05:56;97504.19;;;19.36;100.00
21980;BME280;11154;48.558;9.234;2023-07-31T07:07:59;97506.41;;;19.52;100.00
21980;BME280;11154;48.558;9.234;2023-07-31T07:10:01;97525.44;;;19.57;100.00
21980;BME280;11154;48.558;9.234;2023-07-31T07:12:04;97515.22;;;19.65;100.00
21980;BME280;11154;48.558;9.234;2023-07-31T07:14:05;97513.38;;;19.66;100.00
21980;BME280;11154;48.558;9.234;2023-07-31T07:16:07;97514.56;;;19.70;100.00
21980;BME280;11154;48.558;9.234;2023-07-31T07:18:10;97517.28;;;19.70;100.00
21980;BME280;11154;48.558;9.234;2023-07-31T07:20:12;97512.03;;;19.75;100.00
21980;BME280;11154;48.558;9.234;2023-07-31T07:22:14;97517.41;;;19.81;100.00
21980;BME280;11154;48.558;9.234;2023-07-31T07:24:16;97516.53;;;19.87;100.00
21980;BME280;11154;48.558;9.234;2023-07-31T07:26:18;97515.84;;;19.98;100.00
21980;BME280;11154;48.558;9.234;2023-07-31T07:28:19;97502.97;;;20.00;100.00
21980;BME280;11154;48.558;9.234;2023-07-31T07:30:21;97508.97;;;20.02;100.00
21980;BME280;11154;48.558;9.234;2023-07-31T07:32:23;97500.19;;;20.07;100.00
21980;BME280;11154;48.558;9.234;2023-07-31T07:34:26;97508.09;;;20.08;99.92
21980;BME280;11154;48.558;9.234;2023-07-31T07:36:27;97509.91;;;20.14;98.98
21980;BME280;11154;48.558;9.234;2023-07-31T07:38:29;97497.59;;;20.18;99.26
21980;BME280;11154;48.558;9.234;2023-07-31T07:40:32;97489.72;;;20.17;95.71
21980;BME280;11154;48.558;9.234;2023-07-31T07:42:33;97501.13;;;20.19;96.51
21980;BME280;11154;48.558;9.234;2023-07-31T07:44:35;97495.78;;;20.12;92.01
21980;BME280;11154;48.558;9.234;2023-07-31T07:46:36;97494.75;;;20.13;93.28
21980;BME280;11154;48.558;9.234;2023-07-31T07:48:38;97492.44;;;20.17;94.24
21980;BME280;11154;48.558;9.234;2023-07-31T07:50:38;97493.84;;;20.19;94.60
21980;BME280;11154;48.558;9.234;2023-07-31T07:52:40;97486.94;;;20.23;97.87
21980;BME280;11154;48.558;9.234;2023-07-31T07:54:42;97484.47;;;20.22;95.14
21980;BME280;11154;48.558;9.234;2023-07-31T07:56:44;97488.84;;;20.23;95.71
21980;BME280;11154;48.558;9.234;2023-07-31T07:58:48;97488.84;;;20.23;94.03
21980;BME280;11154;48.558;9.234;2023-07-31T08:00:50;97490.00;;;20.33;96.96
21980;BME280;11154;48.558;9.234;2023-07-31T08:02:52;97490.06;;;20.44;97.21
21980;BME280;11154;48.558;9.234;2023-07-31T08:04:54;97488.50;;;20.55;95.09
21980;BME280;11154;48.558;9.234;2023-07-31T08:06:55;97483.22;;;20.60;93.37
21980;BME280;11154;48.558;9.234;2023-07-31T08:08:57;97491.28;;;20.66;93.69
21980;BME280;11154;48.558;9.234;2023-07-31T08:10:58;97482.94;;;20.68;91.27
21980;BME280;11154;48.558;9.234;2023-07-31T08:13:01;97483.28;;;20.78;92.63
21980;BME280;11154;48.558;9.234;2023-07-31T08:15:03;97482.81;;;20.81;89.53
21980;BME280;11154;48.558;9.234;2023-07-31T08:17:05;97474.28;;;20.84;86.76
21980;BME280;11154;48.558;9.234;2023-07-31T08:19:06;97479.34;;;20.92;88.83
21980;BME280;11154;48.558;9.234;2023-07-31T08:21:07;97482.00;;;20.98;89.13
21980;BME280;11154;48.558;9.234;2023-07-31T08:23:09;97475.00;;;21.08;88.84
21980;BME280;11154;48.558;9.234;2023-07-31T08:25:10;97460.56;;;21.14;87.56
21980;BME280;11154;48.558;9.234;2023-07-31T08:27:12;97459.88;;;21.19;87.04
21980;BME280;11154;48.558;9.234;2023-07-31T08:29:15;97458.59;;;21.21;84.81
21980;BME280;11154;48.558;9.234;2023-07-31T08:31:16;97452.25;;;21.27;87.01
21980;BME280;11154;48.558;9.234;2023-07-31T08:33:18;97443.09;;;21.28;82.27
21980;BME280;11154;48.558;9.234;2023-07-31T08:35:20;97446.63;;;21.29;81.70
21980;BME280;11154;48.558;9.234;2023-07-31T08:37:21;97436.75;;;21.34;81.31
21980;BME280;11154;48.558;9.234;2023-07-31T08:39:23;97445.44;;;21.36;79.81
21980;BME280;11154;48.558;9.234;2023-07-31T08:41:24;97445.38;;;21.43;80.44
21980;BME280;11154;48.558;9.234;2023-07-31T08:43:27;97439.63;;;21.51;81.24
21980;BME280;11154;48.558;9.234;2023-07-31T08:45:30;97450.06;;;21.65;79.74
21980;BME280;11154;48.558;9.234;2023-07-31T08:47:33;97438.53;;;21.70;79.77
21980;BME280;11154;48.558;9.234;2023-07-31T08:49:37;97444.63;;;21.65;75.66
21980;BME280;11154;48.558;9.234;2023-07-31T08:51:41;97440.19;;;21.71;77.49
21980;BME280;11154;48.558;9.234;2023-07-31T08:53:43;97436.63;;;21.70;75.52
21980;BME280;11154;48.558;9.234;2023-07-31T08:55:45;97428.50;;;21.70;76.96
21980;BME280;11154;48.558;9.234;2023-07-31T08:57:46;97431.59;;;21.74;76.59
21980;BME280;11154;48.558;9.234;2023-07-31T08:59:49;97434.53;;;21.72;74.38
21980;BME280;11154;48.558;9.234;2023-07-31T09:01:53;97437.81;;;21.74;74.41
21980;BME280;11154;48.558;9.234;2023-07-31T09:03:58;97426.78;;;21.76;74.33
21980;BME280;11154;48.558;9.234;2023-07-31T09:06:02;97430.19;;;21.82;78.67
21980;BME280;11154;48.558;9.234;2023-07-31T09:08:05;97430.66;;;21.79;75.64
21980;BME280;11154;48.558;9.234;2023-07-31T09:10:06;97431.34;;;21.75;74.62
21980;BME280;11154;48.558;9.234;2023-07-31T09:12:08;97434.91;;;21.76;76.17
21980;BME280;11154;48.558;9.234;2023-07-31T09:14:10;97421.00;;;21.72;74.44
21980;BME280;11154;48.558;9.234;2023-07-31T09:16:12;97418.28;;;21.72;74.47
21980;BME280;11154;48.558;9.234;2023-07-31T09:18:15;97414.53;;;21.73;75.19
21980;BME280;11154;48.558;9.234;2023-07-31T09:20:20;97420.63;;;21.69;76.81
21980;BME280;11154;48.558;9.234;2023-07-31T09:22:31;97422.50;;;21.68;76.23
21980;BME280;11154;48.558;9.234;2023-07-31T09:24:34;97421.69;;;21.68;77.39
21980;BME280;11154;48.558;9.234;2023-07-31T09:26:36;97423.09;;;21.70;78.20
21980;BME280;11154;48.558;9.234;2023-07-31T09:28:38;97418.88;;;21.74;78.65
21980;BME280;11154;48.558;9.234;2023-07-31T09:30:46;97412.88;;;21.72;75.75
21980;BME280;11154;48.558;9.234;2023-07-31T09:32:49;97419.94;;;21.73;77.01
21980;BME280;11154;48.558;9.234;2023-07-31T09:34:52;97412.75;;;21.78;76.37
21980;BME280;11154;48.558;9.234;2023-07-31T09:36:54;97414.06;;;21.87;77.27
21980;BME280;11154;48.558;9.234;2023-07-31T09:39:02;97411.34;;;21.87;75.91
21980;BME280;11154;48.558;9.234;2023-07-31T09:41:05;97407.25;;;21.85;73.81
21980;BME280;11154;48.558;9.234;2023-07-31T09:43:09;97416.41;;;21.84;74.29
21980;BME280;11154;48.558;9.234;2023-07-31T09:45:12;97411.00;;;21.84;74.86
21980;BME280;11154;48.558;9.234;2023-07-31T09:47:21;97401.91;;;21.78;73.66
21980;BME280;11154;48.558;9.234;2023-07-31T09:49:25;97412.75;;;21.78;74.41
21980;BME280;11154;48.558;9.234;2023-07-31T09:51:28;97390.53;;;21.77;75.34
21980;BME280;11154;48.558;9.234;2023-07-31T09:53:28;97384.03;;;21.77;75.88
21980;BME280;11154;48.558;9.234;2023-07-31T09:55:31;97383.44;;;21.87;79.62
21980;BME280;11154;48.558;9.234;2023-07-31T09:57:33;97371.34;;;21.89;77.71
21980;BME280;11154;48.558;9.234;2023-07-31T09:59:36;97376.72;;;22.01;78.05
21980;BME280;11154;48.558;9.234;2023-07-31T10:01:38;97380.63;;;22.05;76.94
21980;BME280;11154;48.558;9.234;2023-07-31T10:03:39;97363.09;;;21.96;75.10
21980;BME280;11154;48.558;9.234;2023-07-31T10:05:43;97358.47;;;21.96;74.99
21980;BME280;11154;48.558;9.234;2023-07-31T10:07:52;97361.69;;;22.05;77.84
21980;BME280;11154;48.558;9.234;2023-07-31T10:09:55;97369.06;;;22.09;77.93
21980;BME280;11154;48.558;9.234;2023-07-31T10:12:00;97358.03;;;22.11;75.94
21980;BME280;11154;48.558;9.234;2023-07-31T10:14:04;97355.16;;;22.17;76.85
21980;BME280;11154;48.558;9.234;2023-07-31T10:16:07;97340.22;;;22.26;74.34
21980;BME280;11154;48.558;9.234;2023-07-31T10:18:09;97340.53;;;22.41;80.26
21980;BME280;11154;48.558;9.234;2023-07-31T10:20:11;97342.06;;;22.49;76.99
21980;BME280;11154;48.558;9.234;2023-07-31T10:22:13;97335.69;;;22.54;75.05
21980;BME280;11154;48.558;9.234;2023-07-31T10:24:17;97330.09;;;22.61;76.38
21980;BME280;11154;48.558;9.234;2023-07-31T10:26:19;97325.13;;;22.69;78.16
21980;BME280;11154;48.558;9.234;2023-07-31T10:28:21;97324.47;;;22.62;72.27
21980;BME280;11154;48.558;9.234;2023-07-31T10:30:26;97328.25;;;22.61;73.96
21980;BME280;11154;48.558;9.234;2023-07-31T10:32:30;97328.44;;;22.71;76.78
21980;BME280;11154;48.558;9.234;2023-07-31T10:34:32;97330.84;;;22.84;78.23
21980;BME280;11154;48.558;9.234;2023-07-31T10:36:33;97322.25;;;22.87;73.28
21980;BME280;11154;48.558;9.234;2023-07-31T10:38:35;97310.97;;;22.95;75.87
21980;BME280;11154;48.558;9.234;2023-07-31T10:40:38;97308.59;;;22.99;70.53
21980;BME280;11154;48.558;9.234;2023-07-31T10:42:46;97310.47;;;23.10;73.66